createdAt,value
2022-11-15T00:01:32.073Z,101504.00
2022-11-15T00:04:17.722Z,101501.41
2022-11-15T00:07:05.617Z,101507.25
2022-11-15T00:09:50.957Z,101506.69
2022-11-15T00:12:36.226Z,101505.63
2022-11-15T00:15:21.718Z,101506.28
2022-11-15T00:18:12.236Z,101497.25
2022-11-15T00:21:04.030Z,101495.94
2022-11-15T00:23:51.942Z,101499.75
2022-11-15T00:26:37.576Z,101506.53
2022-11-15T00:29:22.823Z,101496.16
2022-11-15T00:32:08.241Z,101486.56
2022-11-15T00:34:53.697Z,101486.38
2022-11-15T00:37:39.187Z,101492.13
2022-11-15T00:40:24.662Z,101483.63
2022-11-15T00:43:10.078Z,101489.44
2022-11-15T00:45:55.409Z,101474.25
2022-11-15T00:48:40.779Z,101476.38
2022-11-15T00:51:26.271Z,101485.50
2022-11-15T00:54:11.497Z,101479.28
2022-11-15T00:56:59.754Z,101481.69
2022-11-15T00:59:45.333Z,101473.69
2022-11-15T01:02:33.230Z,101474.53
2022-11-15T01:05:18.678Z,101464.13
2022-11-15T01:08:04.516Z,101465.75
2022-11-15T01:10:49.790Z,101467.34
2022-11-15T01:13:40.184Z,101465.16
2022-11-15T01:16:25.479Z,101468.19
2022-11-15T01:19:11.100Z,101469.88
2022-11-15T01:21:56.592Z,101477.63
2022-11-15T01:24:42.314Z,101473.50
2022-11-15T01:27:30.991Z,101477.63
2022-11-15T01:30:16.448Z,101477.97
2022-11-15T01:33:01.835Z,101467.25
2022-11-15T01:35:47.153Z,101461.53
2022-11-15T01:38:32.580Z,101464.03
2022-11-15T01:41:20.951Z,101468.16
2022-11-15T01:44:41.321Z,101472.00
2022-11-15T01:47:34.690Z,101471.75
2022-11-15T01:50:25.115Z,101460.22
2022-11-15T01:53:11.992Z,101465.19
2022-11-15T01:55:57.711Z,101456.94
2022-11-15T01:58:44.169Z,101458.03
2022-11-15T02:01:31.631Z,101446.78
2022-11-15T02:04:40.708Z,101453.09
2022-11-15T02:07:26.555Z,101444.03
2022-11-15T02:10:15.088Z,101448.94
2022-11-15T02:13:02.531Z,101445.94
2022-11-15T02:16:11.443Z,101439.34
2022-11-15T02:19:02.511Z,101440.13
2022-11-15T02:21:51.056Z,101448.94
2022-11-15T02:25:33.605Z,101450.84
2022-11-15T02:29:02.063Z,101451.94
2022-11-15T02:32:06.040Z,101450.78
2022-11-15T02:35:32.839Z,101440.91
2022-11-15T02:38:29.934Z,101435.13
2022-11-15T02:41:25.059Z,101433.28
2022-11-15T02:44:20.818Z,101438.44
2022-11-15T02:47:14.290Z,101440.13
2022-11-15T02:50:04.355Z,101436.53
2022-11-15T02:52:50.571Z,101429.59
2022-11-15T02:55:46.949Z,101418.38
2022-11-15T02:58:49.048Z,101417.81
2022-11-15T03:01:56.341Z,101412.03
2022-11-15T03:04:59.041Z,101413.69
2022-11-15T03:25:37.766Z,101417.25
2022-11-15T03:28:34.679Z,101406.19
2022-11-15T03:31:45.694Z,101396.78
2022-11-15T03:34:48.593Z,101398.09
2022-11-15T03:37:41.621Z,101397.25
2022-11-15T03:40:35.472Z,101390.91
2022-11-15T03:43:30.874Z,101386.25
2022-11-15T03:46:33.428Z,101379.91
2022-11-15T03:49:29.619Z,101389.69
2022-11-15T03:52:19.217Z,101380.38
2022-11-15T03:55:07.494Z,101379.94
2022-11-15T03:57:59.586Z,101372.75
2022-11-15T04:00:45.163Z,101374.63
2022-11-15T04:03:30.913Z,101377.09
2022-11-15T04:06:16.585Z,101373.56
2022-11-15T04:09:02.080Z,101380.38
2022-11-15T04:11:47.509Z,101378.78
2022-11-15T04:14:32.834Z,101375.69
2022-11-15T04:17:18.179Z,101375.47
2022-11-15T04:20:24.084Z,101375.56
2022-11-15T04:23:42.238Z,101379.16
2022-11-15T04:26:28.178Z,101371.22
2022-11-15T04:29:31.832Z,101376.47
2022-11-15T04:32:17.137Z,101374.88
2022-11-15T04:35:02.523Z,101369.91
2022-11-15T04:37:49.398Z,101366.88
2022-11-15T04:40:35.591Z,101365.66
2022-11-15T04:43:21.170Z,101364.47
2022-11-15T04:46:06.634Z,101372.75
2022-11-15T04:48:58.046Z,101367.31
2022-11-15T04:51:44.651Z,101362.34
2022-11-15T04:54:30.043Z,101364.69
2022-11-15T04:57:15.701Z,101381.19
2022-11-15T05:00:01.441Z,101365.78
2022-11-15T05:03:05.582Z,101365.16
2022-11-15T05:05:51.034Z,101363.50
2022-11-15T05:08:36.449Z,101356.03
2022-11-15T05:11:21.985Z,101362.41
2022-11-15T05:14:07.639Z,101367.13
2022-11-15T05:16:52.988Z,101366.47
2022-11-15T05:19:39.534Z,101367.88
2022-11-15T05:22:25.277Z,101363.47
2022-11-15T05:25:10.912Z,101365.19
2022-11-15T05:27:56.660Z,101369.88
2022-11-15T05:30:42.330Z,101371.50
2022-11-15T05:33:27.762Z,101368.75
2022-11-15T05:36:39.287Z,101368.00
2022-11-15T05:39:24.375Z,101369.84
2022-11-15T05:42:13.655Z,101376.13
2022-11-15T05:45:00.711Z,101375.78
2022-11-15T05:47:47.294Z,101368.13
2022-11-15T05:50:33.253Z,101364.34
2022-11-15T05:53:22.277Z,101368.69
2022-11-15T05:56:09.191Z,101366.22
2022-11-15T05:58:59.427Z,101369.41
2022-11-15T06:01:45.683Z,101368.66
2022-11-15T06:04:31.422Z,101381.13
2022-11-15T06:07:16.846Z,101379.31
2022-11-15T06:10:02.522Z,101377.69
2022-11-15T06:12:47.971Z,101378.72
2022-11-15T06:15:35.335Z,101381.31
2022-11-15T06:18:20.839Z,101376.16
2022-11-15T06:21:06.888Z,101376.25
2022-11-15T06:23:51.989Z,101377.31
2022-11-15T06:26:37.525Z,101366.25
2022-11-15T06:29:22.982Z,101367.44
2022-11-15T06:32:08.540Z,101370.00
2022-11-15T06:34:53.862Z,101371.56
2022-11-15T06:37:39.120Z,101367.53
2022-11-15T06:40:24.534Z,101368.34
2022-11-15T06:43:09.700Z,101366.56
2022-11-15T06:45:55.287Z,101366.63
2022-11-15T06:48:40.570Z,101365.97
2022-11-15T06:51:26.000Z,101367.25
2022-11-15T06:54:11.344Z,101360.28
2022-11-15T06:56:56.710Z,101368.97
2022-11-15T06:59:42.221Z,101366.75
2022-11-15T07:02:27.602Z,101370.22
2022-11-15T07:05:14.229Z,101381.41
2022-11-15T07:08:00.376Z,101377.59
2022-11-15T07:10:45.695Z,101381.72
2022-11-15T07:13:35.878Z,101373.03
2022-11-15T07:16:21.653Z,101367.66
2022-11-15T07:19:06.934Z,101362.19
2022-11-15T07:21:54.972Z,101365.09
2022-11-15T07:24:40.122Z,101364.25
2022-11-15T07:27:27.502Z,101358.44
2022-11-15T07:30:15.554Z,101355.97
2022-11-15T07:33:02.042Z,101358.25
2022-11-15T07:35:50.385Z,101360.25
2022-11-15T07:38:42.212Z,101360.28
2022-11-15T07:41:28.138Z,101353.75
2022-11-15T07:44:13.676Z,101362.84
2022-11-15T07:46:59.246Z,101362.44
2022-11-15T07:49:44.575Z,101363.88
2022-11-15T07:52:29.689Z,101355.13
2022-11-15T07:55:15.150Z,101353.56
2022-11-15T07:58:05.414Z,101348.44
2022-11-15T08:00:50.751Z,101350.63
2022-11-15T08:03:36.711Z,101353.22
2022-11-15T08:06:22.290Z,101356.69
2022-11-15T08:09:07.706Z,101358.44
2022-11-15T08:11:53.034Z,101354.31
2022-11-15T08:14:38.213Z,101359.25
2022-11-15T08:17:26.705Z,101356.91
2022-11-15T08:20:12.319Z,101353.22
2022-11-15T08:23:02.510Z,101352.53
2022-11-15T08:25:47.939Z,101354.53
2022-11-15T08:28:33.721Z,101346.81
2022-11-15T08:31:19.989Z,101348.44
2022-11-15T08:34:06.863Z,101344.19
2022-11-15T08:36:52.130Z,101343.09
2022-11-15T08:39:37.661Z,101346.88
2022-11-15T08:42:22.840Z,101340.66
2022-11-15T08:45:09.441Z,101334.47
2022-11-15T08:47:54.972Z,101334.38
2022-11-15T08:50:40.522Z,101337.50
2022-11-15T08:53:26.125Z,101330.94
2022-11-15T08:56:13.588Z,101326.19
2022-11-15T08:58:59.016Z,101315.84
2022-11-15T09:01:44.318Z,101316.59
2022-11-15T09:04:29.969Z,101311.53
2022-11-15T09:07:15.689Z,101305.84
2022-11-15T09:10:01.011Z,101296.47
2022-11-15T09:12:49.409Z,101300.47
2022-11-15T09:15:35.250Z,101300.53
2022-11-15T09:18:23.449Z,101300.56
2022-11-15T09:21:09.370Z,101294.31
2022-11-15T09:23:54.373Z,101286.47
2022-11-15T09:26:40.221Z,101288.91
2022-11-15T09:29:41.198Z,101281.53
2022-11-15T09:32:32.554Z,101284.31
2022-11-15T09:35:21.818Z,101275.09
2022-11-15T09:38:07.132Z,101271.47
2022-11-15T09:41:15.538Z,101271.00
2022-11-15T09:44:06.680Z,101273.75
2022-11-15T09:47:36.315Z,101264.47
2022-11-15T09:50:39.281Z,101269.28
2022-11-15T09:53:06.209Z,101264.69
2022-11-15T09:55:45.977Z,101265.25
2022-11-15T09:59:10.032Z,101262.91
2022-11-15T10:01:55.850Z,101252.03
2022-11-15T10:04:24.837Z,101250.94
2022-11-15T10:06:59.249Z,101236.63
2022-11-15T10:09:36.552Z,101247.50
2022-11-15T10:12:03.541Z,101243.84
2022-11-15T10:14:32.100Z,101245.09
2022-11-15T10:17:11.072Z,101241.75
2022-11-15T10:20:19.659Z,101236.75
2022-11-15T10:22:52.525Z,101229.22
2022-11-15T10:25:25.575Z,101223.56
2022-11-15T10:27:59.304Z,101218.47
2022-11-15T10:30:38.376Z,101212.34
2022-11-15T10:33:37.295Z,101211.31
2022-11-15T10:36:14.853Z,101207.00
2022-11-15T10:38:50.770Z,101202.50
2022-11-15T10:44:09.022Z,101198.47
2022-11-15T10:46:46.614Z,101203.22
2022-11-15T10:49:18.427Z,101187.59
2022-11-15T10:51:52.793Z,101187.81
2022-11-15T10:54:28.886Z,101184.50
2022-11-15T10:56:59.399Z,101178.88
2022-11-15T10:59:33.693Z,101184.16
2022-11-15T11:02:27.946Z,101174.00
2022-11-15T11:04:54.875Z,101172.03
2022-11-15T11:07:25.138Z,101164.75
2022-11-15T11:10:49.182Z,101162.25
2022-11-15T11:13:23.130Z,101154.75
2022-11-15T11:16:12.833Z,101154.28
2022-11-15T11:19:04.439Z,101146.78
2022-11-15T11:22:08.961Z,101143.72
2022-11-15T11:24:35.706Z,101133.94
2022-11-15T11:27:24.359Z,101139.91
2022-11-15T11:30:27.526Z,101136.66
2022-11-15T11:33:32.542Z,101131.66
2022-11-15T11:36:08.127Z,101128.38
2022-11-15T11:38:48.601Z,101121.19
2022-11-15T11:41:38.696Z,101125.56
2022-11-15T11:44:24.263Z,101115.63
2022-11-15T11:47:04.009Z,101112.88
2022-11-15T11:49:50.226Z,101108.00
2022-11-15T11:52:31.682Z,101104.88
2022-11-15T11:55:19.765Z,101101.81
2022-11-15T11:58:08.538Z,101097.91
2022-11-15T12:00:41.741Z,101097.88
2022-11-15T12:03:08.711Z,101093.97
2022-11-15T12:05:46.316Z,101092.22
2022-11-15T12:08:48.468Z,101082.88
2022-11-15T12:11:39.966Z,101083.50
2022-11-15T12:14:17.945Z,101078.31
2022-11-15T12:16:44.951Z,101074.81
2022-11-15T12:19:11.868Z,101070.31
2022-11-15T12:21:50.608Z,101070.25
2022-11-15T12:24:41.120Z,101080.66
2022-11-15T12:27:19.552Z,101065.78
2022-11-15T12:29:56.869Z,101067.31
2022-11-15T12:32:30.865Z,101065.69
2022-11-15T12:34:58.805Z,101053.81
2022-11-15T12:37:41.631Z,101058.13
2022-11-15T12:40:08.492Z,101047.72
2022-11-15T12:42:44.013Z,101042.66
2022-11-15T12:45:34.937Z,101045.94
2022-11-15T12:48:36.839Z,101041.03
2022-11-15T12:51:03.858Z,101044.25
2022-11-15T12:53:35.999Z,101039.47
2022-11-15T12:56:05.730Z,101035.59
2022-11-15T12:58:55.554Z,101031.41
2022-11-15T13:01:31.670Z,101026.34
2022-11-15T13:04:19.767Z,101033.03
2022-11-15T13:06:57.211Z,101026.81
2022-11-15T13:09:51.765Z,101024.22
2022-11-15T13:12:27.699Z,101021.13
2022-11-15T13:15:00.463Z,101013.94
2022-11-15T13:17:30.958Z,101014.13
2022-11-15T13:20:08.169Z,101010.19
2022-11-15T13:23:03.060Z,101007.94
2022-11-15T13:25:49.021Z,100996.38
2022-11-15T13:28:15.786Z,100995.53
2022-11-15T13:30:53.542Z,100988.38
2022-11-15T13:33:24.993Z,100987.06
2022-11-15T13:35:56.245Z,100993.38
2022-11-15T13:38:25.753Z,100992.25
2022-11-15T13:40:52.551Z,100991.50
2022-11-15T13:43:22.437Z,100989.53
2022-11-15T13:46:24.959Z,100991.78
2022-11-15T13:49:03.555Z,100988.69
2022-11-15T13:51:39.235Z,100986.91
2022-11-15T13:54:45.400Z,100983.91
2022-11-15T13:57:32.262Z,100986.31
2022-11-15T14:00:04.236Z,100981.53
2022-11-15T14:02:38.896Z,100974.88
2022-11-15T14:05:20.977Z,100975.34
2022-11-15T14:08:04.695Z,100967.16
2022-11-15T14:10:38.781Z,100974.97
2022-11-15T14:13:31.583Z,100974.88
2022-11-15T14:16:22.326Z,100964.38
2022-11-15T14:18:54.374Z,100964.94
2022-11-15T14:21:21.583Z,100955.53
2022-11-15T14:23:50.149Z,100960.38
2022-11-15T14:26:35.053Z,100961.50
2022-11-15T14:29:28.123Z,100942.50
2022-11-15T14:32:13.487Z,100941.72
2022-11-15T14:34:40.311Z,100943.22
2022-11-15T14:37:23.055Z,100927.19
2022-11-15T14:39:50.732Z,100932.56
2022-11-15T14:42:18.433Z,100923.47
2022-11-15T14:44:46.319Z,100920.84
2022-11-15T14:47:13.677Z,100914.81
2022-11-15T14:49:40.776Z,100907.31
2022-11-15T14:52:37.311Z,100906.81
2022-11-15T14:55:12.834Z,100911.91
2022-11-15T14:57:39.678Z,100913.75
2022-11-15T15:00:07.410Z,100919.25
2022-11-15T15:02:41.971Z,100916.69
2022-11-15T15:05:15.990Z,100922.97
2022-11-15T15:07:43.480Z,100916.69
2022-11-15T15:10:38.436Z,100914.66
2022-11-15T15:27:34.832Z,100905.34
2022-11-15T15:30:01.775Z,100900.94
2022-11-15T15:32:28.648Z,100894.00
2022-11-15T15:34:55.593Z,100899.59
2022-11-15T15:37:27.343Z,100893.34
2022-11-15T15:39:55.810Z,100890.00
2022-11-15T15:42:23.839Z,100897.50
2022-11-15T15:44:51.818Z,100902.50
2022-11-15T15:47:23.690Z,100893.44
2022-11-15T15:49:51.651Z,100899.53
2022-11-15T15:52:18.642Z,100895.16
2022-11-15T15:54:45.506Z,100896.03
2022-11-15T15:57:14.087Z,100890.38
2022-11-15T15:59:41.799Z,100890.44
2022-11-15T16:02:13.782Z,100889.09
2022-11-15T16:04:40.882Z,100883.13
2022-11-15T16:07:17.635Z,100871.19
2022-11-15T16:10:02.937Z,100878.00
2022-11-15T16:12:34.152Z,100873.31
2022-11-15T16:15:02.575Z,100874.81
2022-11-15T16:17:34.589Z,100871.53
2022-11-15T16:20:02.345Z,100864.88
2022-11-15T16:22:30.307Z,100858.38
2022-11-15T16:24:57.805Z,100869.59
2022-11-15T16:27:24.646Z,100866.59
2022-11-15T16:29:51.517Z,100862.53
2022-11-15T16:32:18.476Z,100868.19
2022-11-15T16:34:49.039Z,100864.44
2022-11-15T16:37:23.663Z,100862.50
2022-11-15T16:39:50.804Z,100859.63
2022-11-15T16:42:17.759Z,100858.81
2022-11-15T16:44:45.028Z,100862.25
2022-11-15T16:47:22.997Z,100857.38
2022-11-15T16:49:49.830Z,100858.38
2022-11-15T16:52:21.243Z,100855.63
2022-11-15T16:54:48.402Z,100849.59
2022-11-15T16:57:16.668Z,100845.69
2022-11-15T16:59:43.517Z,100848.94
2022-11-15T17:02:13.720Z,100843.25
2022-11-15T17:04:40.830Z,100844.25
2022-11-15T17:07:08.573Z,100839.69
2022-11-15T17:09:35.611Z,100845.09
2022-11-15T17:12:02.508Z,100841.97
2022-11-15T17:14:29.624Z,100840.53
2022-11-15T17:16:56.458Z,100852.56
2022-11-15T17:19:23.240Z,100855.03
2022-11-15T17:21:50.299Z,100842.00
2022-11-15T17:24:17.381Z,100839.22
2022-11-15T17:26:44.461Z,100833.09
2022-11-15T17:29:11.415Z,100830.63
2022-11-15T17:31:39.885Z,100824.28
2022-11-15T17:34:07.481Z,100828.53
2022-11-15T17:36:35.279Z,100826.38
2022-11-15T17:39:03.025Z,100820.69
2022-11-15T17:41:30.285Z,100820.03
2022-11-15T17:43:59.908Z,100816.44
2022-11-15T17:46:28.120Z,100817.59
2022-11-15T17:48:56.523Z,100817.91
2022-11-15T17:51:24.247Z,100806.19
2022-11-15T17:53:51.731Z,100807.34
2022-11-15T17:56:23.761Z,100798.56
2022-11-15T17:58:56.628Z,100799.34
2022-11-15T18:01:29.077Z,100796.25
2022-11-15T18:04:00.192Z,100791.41
2022-11-15T18:06:30.565Z,100790.88
2022-11-15T18:08:57.960Z,100793.00
2022-11-15T18:11:33.041Z,100786.97
2022-11-15T18:14:05.203Z,100789.25
2022-11-15T18:16:34.833Z,100788.44
2022-11-15T18:19:02.165Z,100790.03
2022-11-15T18:21:31.286Z,100789.84
2022-11-15T18:24:01.666Z,100788.84
2022-11-15T18:26:30.486Z,100791.91
2022-11-15T18:29:02.983Z,100789.63
2022-11-15T18:31:31.518Z,100784.06
2022-11-15T18:33:59.811Z,100788.56
2022-11-15T18:36:28.663Z,100776.34
2022-11-15T18:39:02.787Z,100784.63
2022-11-15T18:41:30.900Z,100785.66
2022-11-15T18:43:59.882Z,100783.50
2022-11-15T18:46:29.653Z,100776.19
2022-11-15T18:48:58.155Z,100778.13
2022-11-15T18:51:30.007Z,100775.66
2022-11-15T18:53:59.180Z,100772.38
2022-11-15T18:56:28.013Z,100777.19
2022-11-15T18:58:56.938Z,100775.38
2022-11-15T19:01:27.556Z,100768.84
2022-11-15T19:03:57.587Z,100774.19
2022-11-15T19:06:29.334Z,100772.88
2022-11-15T19:08:58.439Z,100765.13
2022-11-15T19:11:28.711Z,100776.00
2022-11-15T19:14:00.662Z,100774.03
2022-11-15T19:16:28.282Z,100770.19
2022-11-15T19:18:56.764Z,100770.19
2022-11-15T19:21:25.021Z,100766.13
2022-11-15T19:23:55.366Z,100772.75
2022-11-15T19:26:23.472Z,100766.25
2022-11-15T19:28:55.905Z,100765.66
2022-11-15T19:31:24.055Z,100762.06
2022-11-15T19:33:52.812Z,100768.22
2022-11-15T19:36:27.003Z,100770.66
2022-11-15T19:38:54.836Z,100769.72
2022-11-15T19:41:23.707Z,100761.28
2022-11-15T19:43:51.026Z,100761.47
2022-11-15T19:46:20.645Z,100762.59
2022-11-15T19:48:48.419Z,100765.59
2022-11-15T19:51:21.760Z,100752.56
2022-11-15T19:53:52.206Z,100754.91
2022-11-15T19:56:19.814Z,100754.19
2022-11-15T19:58:47.114Z,100746.53
2022-11-15T20:01:18.686Z,100751.22
2022-11-15T20:03:46.849Z,100743.69
2022-11-15T20:06:16.187Z,100739.50
2022-11-15T20:08:43.511Z,100745.28
2022-11-15T20:11:11.398Z,100740.22
2022-11-15T20:13:39.046Z,100734.72
2022-11-15T20:16:06.386Z,100728.69
2022-11-15T20:18:34.619Z,100728.88
2022-11-15T20:21:02.854Z,100726.41
2022-11-15T20:23:30.604Z,100722.16
2022-11-15T20:25:57.474Z,100723.47
2022-11-15T20:28:26.852Z,100716.25
2022-11-15T20:30:56.768Z,100713.50
2022-11-15T20:33:24.503Z,100711.94
2022-11-15T20:35:51.675Z,100708.81
2022-11-15T20:38:20.768Z,100704.31
2022-11-15T20:40:49.695Z,100698.06
2022-11-15T20:43:19.248Z,100704.72
2022-11-15T20:45:48.173Z,100694.00
2022-11-15T20:48:16.080Z,100699.28
2022-11-15T20:50:44.710Z,100690.75
2022-11-15T20:53:13.813Z,100695.72
2022-11-15T20:55:47.783Z,100689.41
2022-11-15T20:58:16.403Z,100683.41
2022-11-15T21:00:44.955Z,100678.28
2022-11-15T21:03:13.526Z,100680.22
2022-11-15T21:05:42.488Z,100681.94
2022-11-15T21:08:11.799Z,100680.41
2022-11-15T21:10:59.043Z,100677.13
2022-11-15T21:13:26.735Z,100671.44
2022-11-15T21:16:00.711Z,100670.31
2022-11-15T21:18:27.539Z,100676.72
2022-11-15T21:20:54.573Z,100664.41
2022-11-15T21:23:21.951Z,100662.56
2022-11-15T21:25:52.669Z,100661.53
2022-11-15T21:28:19.516Z,100662.56
2022-11-15T21:30:57.352Z,100662.44
2022-11-15T21:33:27.436Z,100663.00
2022-11-15T21:35:55.814Z,100650.69
2022-11-15T21:38:24.406Z,100643.97
2022-11-15T21:40:52.256Z,100640.47
2022-11-15T21:43:20.266Z,100629.41
2022-11-15T21:46:01.942Z,100628.25
2022-11-15T21:48:31.135Z,100621.25
2022-11-15T21:51:04.725Z,100622.88
2022-11-15T21:53:32.210Z,100619.03
2022-11-15T21:56:00.623Z,100618.41
2022-11-15T21:58:28.269Z,100624.81
2022-11-15T22:01:14.663Z,100612.03
2022-11-15T22:03:42.332Z,100616.03
2022-11-15T22:06:17.782Z,100609.44
2022-11-15T22:08:46.782Z,100599.06
2022-11-15T22:11:15.067Z,100603.94
2022-11-15T22:13:42.329Z,100592.13
2022-11-15T22:16:10.126Z,100591.31
2022-11-15T22:18:37.758Z,100583.97
2022-11-15T22:21:11.111Z,100577.47
2022-11-15T22:23:38.316Z,100577.25
2022-11-15T22:26:05.869Z,100578.88
2022-11-15T22:28:33.123Z,100570.81
2022-11-15T22:31:00.342Z,100570.09
2022-11-15T22:33:33.029Z,100565.63
2022-11-15T22:36:00.518Z,100555.69
2022-11-15T22:38:42.464Z,100553.84
2022-11-15T22:41:09.432Z,100544.78
2022-11-15T22:46:48.701Z,100540.81
2022-11-15T22:49:15.517Z,100538.41
2022-11-15T22:51:42.439Z,100533.41
2022-11-15T22:54:09.305Z,100515.72
2022-11-15T22:56:36.091Z,100517.88
2022-11-15T22:59:02.959Z,100515.72
2022-11-15T23:01:29.815Z,100505.13
2022-11-15T23:03:57.108Z,100505.75
2022-11-15T23:06:24.045Z,100491.28
2022-11-15T23:08:51.013Z,100498.41
2022-11-15T23:11:36.501Z,100495.53
2022-11-15T23:14:03.398Z,100483.44
2022-11-15T23:16:36.255Z,100476.03
2022-11-15T23:19:08.480Z,100480.31
2022-11-15T23:21:59.383Z,100477.25
2022-11-15T23:24:26.395Z,100471.47
2022-11-15T23:26:59.459Z,100473.91
2022-11-15T23:29:27.763Z,100471.47
2022-11-15T23:32:14.042Z,100469.03
2022-11-15T23:34:43.327Z,100461.50
2022-11-15T23:37:14.535Z,100453.88
2022-11-15T23:39:41.377Z,100459.97
2022-11-15T23:42:09.497Z,100457.22
2022-11-15T23:44:37.225Z,100454.69
2022-11-15T23:47:04.273Z,100452.66
2022-11-15T23:49:31.097Z,100452.31
2022-11-15T23:51:57.888Z,100452.53
2022-11-15T23:54:25.214Z,100443.56
2022-11-15T23:56:52.095Z,100442.59
2022-11-15T23:59:18.984Z,100432.66
